Airfield :
LOGIN :

Register | Disclaimer

   EN    FR    IT 

 










Legend :    VFR   Marginal VFR   IFR   Intensive IFR   Very Intensive IFR
Visi :
Ceiling :
>= 8 km
>= 3000ft
5 to 8 km
1000 to 3000 ft
1500m to 5 km
500 to 1000 ft
800 to 1500m
200 to 500 ft
< 800m
< 200 ft
Symbols :   Thunderstorms  Fog  Heavy snow  Heavy precipitations  Wind > 20 kt
SIGMETs :     Misc.  Thunderstorms  Icing  Turbulence  Mountain Waves  Volcanic Ashes







- Airport Elevation : 177 ft
- IATA code : AYT


LTAI - Antalya

CURRENT METAR :
  • 162020Z 01003KT CAVOK 21/16 Q1015 NOSIG RMK RWY18C 35003KT 300V360 RWY36R 01004KT RWY18L 01003KT

EXPIRED METARs :
  • 161950Z 01003KT CAVOK 21/16 Q1015 NOSIG
  • 161920Z 35004KT 290V050 CAVOK 21/16 Q1015 NOSIG RMK RWY18C 29004KT 190V320 RWY36R 00000KT RWY18L VRB01KT
  • 161850Z VRB02KT CAVOK 22/17 Q1015 NOSIG RMK RWY18C VRB01KT RWY36R 33002KT RWY18L 32003KT
  • 161820Z 33004KT 290V350 9999 FEW030 22/17 Q1015 NOSIG RMK RWY18C 32004KT 290V360 RWY36R 35005KT RWY18L 33003KT 300V360
  • 161750Z 32003KT 290V360 9999 FEW030 22/16 Q1015 NOSIG RMK RWY18C 33005KT RWY36R VRB02KT RWY18L 03003KT

TAF TAF LTAI
Valid from the 16 at 18:00 until the 17 at 18:00 UTC


161640Z 1618/1718 34008KT 9999 FEW030
BECMG 1618/1621 CAVOK
BECMG 1706/1710 18010KT SCT030
TEMPO 1712/1716 FEW020CB
No reported NOTAMs for that airfield.



MET'MAP, your aeronautical weather chart ! - Copyright ORBIFLY December 2007 - Disclaimer

ORBIFLY MET'MAP TEAM :

Programming & Development : Alexandra Zaïnal
Concept & Development : Baudouin d'Aumeries
Co-Development & Prog : Marc-Olivier Méhu
Technical & hardware support : Manuel Goepfert

Contact : metmap@orbifly.com




SOURCES & CREDITS :

   NOAA